Time;durP1;ratioP1;P1;durP2;ratioP2;P2;SDS_P1;SDS_P2;PMS_P1;PMS_P2;Temp;Humidity;BMP_temperature;BMP_pressure;BME280_temperature;BME280_humidity;BME280_pressure;Samples;Min_cycle;Max_cycle;Signal;HPM_P1;HPM_P2
2023/04/19 00:02:22;;;;;;;4.68;4.18;;;;;;;;;;5019764;28;20207;-85
2023/04/19 00:04:50;;;;;;;4.63;4.22;;;;;;;;;;5020826;28;20234;-85
2023/04/19 00:07:19;;;;;;;4.30;3.90;;;;;;;;;;5020780;28;20272;-84
2023/04/19 00:09:46;;;;;;;3.35;3.05;;;;;;;;;;5020007;28;20199;-84
2023/04/19 00:12:15;;;;;;;3.90;3.60;;;;;;;;;;5020531;28;20215;-84
2023/04/19 00:14:43;;;;;;;4.03;3.67;;;;;;;;;;5020557;28;20238;-84
2023/04/19 00:17:11;;;;;;;3.83;3.22;;;;;;;;;;5011036;28;20774;-85
2023/04/19 00:19:38;;;;;;;3.20;2.90;;;;;;;;;;5001902;28;20207;-84
2023/04/19 00:22:06;;;;;;;3.63;3.03;;;;;;;;;;5000344;28;20242;-84
2023/04/19 00:24:33;;;;;;;7.07;4.13;;;;;;;;;;5001879;28;20298;-84
2023/04/19 00:27:01;;;;;;;3.60;3.30;;;;;;;;;;5001436;28;20754;-84
2023/04/19 00:29:30;;;;;;;2.95;2.75;;;;;;;;;;5000012;28;20200;-84
2023/04/19 00:31:58;;;;;;;3.20;2.80;;;;;;;;;;4999568;28;20207;-84
2023/04/19 00:34:25;;;;;;;2.97;2.70;;;;;;;;;;5000196;28;20210;-85
2023/04/19 00:36:53;;;;;;;2.72;2.53;;;;;;;;;;5000578;28;20318;-85
2023/04/19 00:39:20;;;;;;;3.10;2.80;;;;;;;;;;5000313;28;20632;-83
2023/04/19 00:41:48;;;;;;;2.90;2.70;;;;;;;;;;5001074;28;20298;-84
2023/04/19 00:44:15;;;;;;;3.05;2.85;;;;;;;;;;5000582;28;20199;-84
2023/04/19 00:46:44;;;;;;;4.28;3.70;;;;;;;;;;5001359;28;20295;-84
2023/04/19 00:49:12;;;;;;;2.83;2.63;;;;;;;;;;5000459;28;20687;-84
2023/04/19 00:51:39;;;;;;;2.78;2.53;;;;;;;;;;5000950;28;20283;-85
2023/04/19 00:54:07;;;;;;;3.13;2.83;;;;;;;;;;4998243;28;20291;-84
2023/04/19 00:56:36;;;;;;;2.80;2.60;;;;;;;;;;4997774;28;20296;-84
2023/04/19 00:59:03;;;;;;;2.70;2.50;;;;;;;;;;4999338;28;20302;-85
2023/04/19 01:01:31;;;;;;;2.30;2.10;;;;;;;;;;4997863;28;20559;-85
2023/04/19 01:04:00;;;;;;;2.67;2.47;;;;;;;;;;4997730;28;20714;-83
2023/04/19 01:06:28;;;;;;;2.47;2.28;;;;;;;;;;4998319;28;20227;-84
2023/04/19 01:08:56;;;;;;;5.22;3.28;;;;;;;;;;4998296;28;20649;-84
2023/04/19 01:11:24;;;;;;;2.55;2.35;;;;;;;;;;4999351;28;20777;-83
2023/04/19 01:13:52;;;;;;;2.50;2.30;;;;;;;;;;4998603;28;20271;-85
2023/04/19 01:16:19;;;;;;;2.60;2.38;;;;;;;;;;4999557;28;20594;-84
2023/04/19 01:18:47;;;;;;;3.15;2.70;;;;;;;;;;4998340;28;20206;-84
2023/04/19 01:21:16;;;;;;;3.75;2.67;;;;;;;;;;4998199;28;20211;-84
2023/04/19 01:23:45;;;;;;;2.63;2.42;;;;;;;;;;5000070;28;20239;-84
2023/04/19 01:26:12;;;;;;;2.13;2.03;;;;;;;;;;5000593;28;20302;-84
2023/04/19 01:28:40;;;;;;;2.40;2.20;;;;;;;;;;5000010;28;20199;-84
2023/04/19 01:31:07;;;;;;;1.98;1.88;;;;;;;;;;5000522;28;20239;-84
2023/04/19 01:33:35;;;;;;;2.08;1.98;;;;;;;;;;4998838;28;20295;-84
2023/04/19 01:36:02;;;;;;;2.75;2.55;;;;;;;;;;4998716;28;20220;-84
2023/04/19 01:38:30;;;;;;;2.42;2.22;;;;;;;;;;4998967;28;20279;-84
2023/04/19 01:40:59;;;;;;;3.03;2.72;;;;;;;;;;5000365;28;20227;-84
2023/04/19 01:43:26;;;;;;;3.50;2.90;;;;;;;;;;4999380;28;20262;-84
2023/04/19 01:45:54;;;;;;;2.60;2.40;;;;;;;;;;4997849;28;20262;-84
2023/04/19 01:48:21;;;;;;;2.58;2.35;;;;;;;;;;5018660;28;20202;-84
2023/04/19 01:50:49;;;;;;;3.13;2.83;;;;;;;;;;5020487;28;20638;-84
2023/04/19 01:53:16;;;;;;;2.63;2.40;;;;;;;;;;5016843;28;20675;-84
2023/04/19 01:55:44;;;;;;;2.17;2.00;;;;;;;;;;5017588;28;20237;-84
2023/04/19 01:58:13;;;;;;;3.22;2.60;;;;;;;;;;5019145;28;20716;-83
2023/04/19 02:00:40;;;;;;;2.90;2.70;;;;;;;;;;5018408;28;20199;-84
2023/04/19 02:03:08;;;;;;;2.55;2.35;;;;;;;;;;5018004;28;20713;-83
2023/04/19 02:05:35;;;;;;;2.45;2.25;;;;;;;;;;5017005;28;20251;-84
2023/04/19 02:08:03;;;;;;;3.28;2.53;;;;;;;;;;5017081;28;20670;-84
2023/04/19 02:10:30;;;;;;;2.55;2.35;;;;;;;;;;5016806;28;20302;-84
2023/04/19 02:12:58;;;;;;;2.03;1.92;;;;;;;;;;5016557;28;20294;-83
2023/04/19 02:15:27;;;;;;;1.95;1.85;;;;;;;;;;5020897;28;20243;-83
2023/04/19 02:17:54;;;;;;;2.00;1.85;;;;;;;;;;5007249;28;20322;-82
2023/04/19 02:20:23;;;;;;;2.13;1.98;;;;;;;;;;5004323;28;20230;-83
2023/04/19 02:22:50;;;;;;;2.05;1.95;;;;;;;;;;4998757;28;20207;-84
2023/04/19 02:25:18;;;;;;;2.03;1.88;;;;;;;;;;4996483;28;20231;-84
2023/04/19 02:27:46;;;;;;;1.63;1.52;;;;;;;;;;4997311;28;20242;-84
2023/04/19 02:30:14;;;;;;;3.33;3.08;;;;;;;;;;4998746;28;20628;-84
2023/04/19 02:32:43;;;;;;;2.40;2.20;;;;;;;;;;4996951;28;20714;-85
2023/04/19 02:35:10;;;;;;;3.30;2.17;;;;;;;;;;4996282;28;20274;-83
2023/04/19 02:37:38;;;;;;;2.58;2.25;;;;;;;;;;4996921;28;20307;-84
2023/04/19 02:40:07;;;;;;;2.63;2.42;;;;;;;;;;4996626;28;20214;-85
2023/04/19 02:42:35;;;;;;;2.47;2.28;;;;;;;;;;4996841;28;20230;-85
2023/04/19 02:45:02;;;;;;;3.33;2.97;;;;;;;;;;4996356;28;20255;-84
2023/04/19 02:47:30;;;;;;;3.00;2.75;;;;;;;;;;5010393;28;20294;-84
2023/04/19 02:49:59;;;;;;;3.42;3.13;;;;;;;;;;5027800;28;20202;-84
2023/04/19 02:52:27;;;;;;;2.97;2.60;;;;;;;;;;5028455;28;20270;-85
2023/04/19 02:54:55;;;;;;;2.33;2.17;;;;;;;;;;5021078;28;20219;-84
2023/04/19 02:57:22;;;;;;;2.70;2.30;;;;;;;;;;5022054;28;20313;-85
2023/04/19 02:59:49;;;;;;;2.75;2.55;;;;;;;;;;5019951;28;20298;-85
2023/04/19 03:02:17;;;;;;;3.20;2.95;;;;;;;;;;5020442;28;20294;-85
2023/04/19 03:04:46;;;;;;;3.58;3.05;;;;;;;;;;5020323;28;20207;-84
2023/04/19 03:07:15;;;;;;;2.78;2.58;;;;;;;;;;5020246;28;20205;-84
2023/04/19 03:09:42;;;;;;;3.08;2.78;;;;;;;;;;5020249;28;20207;-84
2023/04/19 03:12:10;;;;;;;3.05;2.83;;;;;;;;;;5020898;28;20555;-84
2023/04/19 03:14:38;;;;;;;3.13;2.47;;;;;;;;;;5020159;28;20663;-84
2023/04/19 03:17:06;;;;;;;2.75;2.55;;;;;;;;;;5011314;28;20216;-84
2023/04/19 03:19:33;;;;;;;2.90;2.70;;;;;;;;;;5001093;28;20224;-84
2023/04/19 03:22:01;;;;;;;3.65;3.10;;;;;;;;;;5001034;28;20282;-84
2023/04/19 03:24:30;;;;;;;2.65;2.45;;;;;;;;;;5001925;28;20570;-84
2023/04/19 03:26:58;;;;;;;3.00;2.75;;;;;;;;;;5001130;28;20210;-85
2023/04/19 03:29:26;;;;;;;3.38;3.08;;;;;;;;;;5000403;28;20203;-85
2023/04/19 03:31:53;;;;;;;3.95;3.63;;;;;;;;;;4999881;28;20267;-84
2023/04/19 03:34:21;;;;;;;3.00;2.80;;;;;;;;;;5000234;28;20396;-85
2023/04/19 03:36:48;;;;;;;2.75;2.50;;;;;;;;;;5000591;28;20262;-84
2023/04/19 03:39:16;;;;;;;2.60;2.40;;;;;;;;;;5000434;28;20287;-84
2023/04/19 03:41:44;;;;;;;2.92;2.70;;;;;;;;;;4999848;28;20209;-85
2023/04/19 03:44:12;;;;;;;2.78;2.30;;;;;;;;;;5000295;28;20283;-84
2023/04/19 03:46:39;;;;;;;3.85;2.88;;;;;;;;;;5000047;28;20318;-83
2023/04/19 03:49:07;;;;;;;6.20;3.15;;;;;;;;;;5000445;28;20231;-83
2023/04/19 03:51:34;;;;;;;2.33;2.22;;;;;;;;;;5000842;28;20238;-84
2023/04/19 03:54:02;;;;;;;3.20;2.97;;;;;;;;;;5001875;28;20200;-84
2023/04/19 03:56:30;;;;;;;3.10;2.88;;;;;;;;;;5002500;28;20220;-84
2023/04/19 03:58:58;;;;;;;3.25;2.95;;;;;;;;;;5000622;28;20247;-83
2023/04/19 04:01:27;;;;;;;3.45;3.15;;;;;;;;;;5002712;28;20200;-84
2023/04/19 04:03:55;;;;;;;4.60;3.63;;;;;;;;;;4999418;28;20290;-83
2023/04/19 04:06:22;;;;;;;5.47;3.85;;;;;;;;;;5000126;28;20266;-84
2023/04/19 04:08:50;;;;;;;3.90;3.25;;;;;;;;;;5000312;28;20200;-84
2023/04/19 04:11:17;;;;;;;6.03;3.65;;;;;;;;;;4999552;28;20242;-84
2023/04/19 04:13:46;;;;;;;4.47;3.50;;;;;;;;;;5000464;28;20295;-84
2023/04/19 04:16:14;;;;;;;3.78;3.47;;;;;;;;;;5001650;28;20246;-84
2023/04/19 04:18:42;;;;;;;4.00;3.67;;;;;;;;;;5023804;28;20250;-83
2023/04/19 04:21:09;;;;;;;4.38;3.97;;;;;;;;;;5018981;28;20281;-83
2023/04/19 04:23:37;;;;;;;3.97;3.55;;;;;;;;;;5019080;28;20199;-84
2023/04/19 04:26:08;;;;;;;3.35;2.80;;;;;;;;;;5019483;28;20714;-83
2023/04/19 04:28:36;;;;;;;3.40;3.10;;;;;;;;;;5017922;28;20199;-83
2023/04/19 04:31:04;;;;;;;4.43;3.45;;;;;;;;;;5018738;28;20202;-84
2023/04/19 04:33:33;;;;;;;3.42;3.13;;;;;;;;;;5018801;28;20210;-84
2023/04/19 04:36:01;;;;;;;3.38;2.42;;;;;;;;;;5019274;28;20278;-84
2023/04/19 04:38:30;;;;;;;2.97;2.78;;;;;;;;;;5018653;28;20274;-84
2023/04/19 04:40:58;;;;;;;3.70;3.40;;;;;;;;;;5018520;28;20195;-84
2023/04/19 04:43:28;;;;;;;3.80;3.40;;;;;;;;;;5020143;28;20207;-85
2023/04/19 04:45:56;;;;;;;3.90;3.40;;;;;;;;;;5020346;28;20235;-84
2023/04/19 04:48:24;;;;;;;3.80;3.50;;;;;;;;;;5019830;28;20206;-84
2023/04/19 04:50:53;;;;;;;3.47;3.10;;;;;;;;;;5019682;28;20191;-83
2023/04/19 04:53:20;;;;;;;3.45;3.15;;;;;;;;;;5019045;28;20199;-83
2023/04/19 04:55:48;;;;;;;2.75;2.50;;;;;;;;;;5017726;28;20246;-84
2023/04/19 04:58:15;;;;;;;2.60;2.40;;;;;;;;;;5017151;28;20730;-83
2023/04/19 05:00:42;;;;;;;2.80;2.60;;;;;;;;;;5016992;28;20195;-84
2023/04/19 05:03:10;;;;;;;4.25;3.30;;;;;;;;;;5018062;28;20209;-84
2023/04/19 05:05:37;;;;;;;2.60;2.40;;;;;;;;;;5016572;28;20218;-83
2023/04/19 05:08:06;;;;;;;3.50;3.20;;;;;;;;;;5018822;28;20365;-83
2023/04/19 05:10:34;;;;;;;3.17;2.85;;;;;;;;;;5017678;28;20210;-84
2023/04/19 05:13:02;;;;;;;2.95;2.65;;;;;;;;;;5017291;28;20231;-83
2023/04/19 05:15:29;;;;;;;3.10;2.80;;;;;;;;;;5018204;28;20246;-84
2023/04/19 05:17:57;;;;;;;4.35;4.05;;;;;;;;;;5001964;28;20286;-83
2023/04/19 05:20:25;;;;;;;4.00;2.80;;;;;;;;;;4999145;28;20220;-84
2023/04/19 05:22:58;;;;;;;3.05;2.72;;;;;;;;;;4997033;28;20701;-82
2023/04/19 05:25:27;;;;;;;4.90;2.97;;;;;;;;;;4998474;28;20575;-83
2023/04/19 05:27:54;;;;;;;4.55;3.03;;;;;;;;;;4998131;28;20279;-84
2023/04/19 05:30:22;;;;;;;2.90;2.70;;;;;;;;;;4999302;28;20304;-84
2023/04/19 05:32:51;;;;;;;2.78;2.40;;;;;;;;;;5000595;28;20271;-83
2023/04/19 05:35:18;;;;;;;3.00;2.78;;;;;;;;;;4998786;28;20638;-84
2023/04/19 05:37:46;;;;;;;2.45;2.25;;;;;;;;;;4997486;28;20202;-83
2023/04/19 05:40:13;;;;;;;2.40;2.20;;;;;;;;;;4997889;28;20312;-83
2023/04/19 05:42:42;;;;;;;3.47;3.10;;;;;;;;;;4998606;28;20290;-82
2023/04/19 05:45:11;;;;;;;3.17;2.88;;;;;;;;;;5023291;23;20240;-82
2023/04/19 05:47:39;;;;;;;4.57;3.35;;;;;;;;;;4991647;28;20215;-83
2023/04/19 05:50:07;;;;;;;5.20;3.33;;;;;;;;;;4993541;28;20690;-81
2023/04/19 05:52:35;;;;;;;4.50;3.05;;;;;;;;;;4993714;28;20204;-81
2023/04/19 05:55:02;;;;;;;3.17;2.88;;;;;;;;;;5013044;28;20223;-80
2023/04/19 05:57:30;;;;;;;3.78;2.58;;;;;;;;;;5017343;28;20224;-80
2023/04/19 05:59:59;;;;;;;3.67;2.75;;;;;;;;;;5016703;28;20227;-80
2023/04/19 06:02:27;;;;;;;3.90;3.05;;;;;;;;;;5017213;28;20259;-79
2023/04/19 06:04:56;;;;;;;5.90;2.80;;;;;;;;;;5017038;28;20194;-80
2023/04/19 06:07:24;;;;;;;2.80;2.60;;;;;;;;;;5016411;28;20204;-80
2023/04/19 06:09:51;;;;;;;3.05;2.63;;;;;;;;;;5016524;28;20255;-81
2023/04/19 06:12:19;;;;;;;3.08;2.80;;;;;;;;;;5017498;28;20238;-80
2023/04/19 06:14:46;;;;;;;3.55;2.90;;;;;;;;;;5017038;28;20187;-80
2023/04/19 06:17:15;;;;;;;4.60;2.88;;;;;;;;;;5015663;28;20231;-81
2023/04/19 06:19:43;;;;;;;4.00;3.60;;;;;;;;;;5014153;28;20627;-82
2023/04/19 06:22:10;;;;;;;3.75;3.22;;;;;;;;;;5008635;28;20259;-84
2023/04/19 06:24:38;;;;;;;5.70;3.38;;;;;;;;;;5009283;28;20239;-83
2023/04/19 06:27:05;;;;;;;4.15;2.78;;;;;;;;;;5002308;28;20259;-82
2023/04/19 06:29:33;;;;;;;2.78;2.38;;;;;;;;;;5013883;28;20187;-80
2023/04/19 06:32:00;;;;;;;2.83;2.53;;;;;;;;;;5015224;28;20210;-82
2023/04/19 06:34:29;;;;;;;3.35;3.03;;;;;;;;;;5015272;28;20188;-82
2023/04/19 06:36:56;;;;;;;3.85;2.70;;;;;;;;;;5016385;28;20238;-82
2023/04/19 06:39:24;;;;;;;3.72;2.80;;;;;;;;;;5003482;28;20650;-84
2023/04/19 06:41:51;;;;;;;2.78;2.33;;;;;;;;;;4997878;28;20695;-84
2023/04/19 06:44:19;;;;;;;3.13;2.58;;;;;;;;;;4997583;28;20286;-84
2023/04/19 06:46:46;;;;;;;3.63;2.72;;;;;;;;;;4995514;28;20235;-84
2023/04/19 06:49:14;;;;;;;2.88;2.42;;;;;;;;;;4996235;28;20299;-83
2023/04/19 06:51:43;;;;;;;3.05;2.75;;;;;;;;;;4996426;28;20293;-84
2023/04/19 06:54:10;;;;;;;3.13;2.92;;;;;;;;;;4995711;28;20296;-84
2023/04/19 06:56:44;;;;;;;5.18;2.55;;;;;;;;;;4995999;28;20310;-82
2023/04/19 06:59:12;;;;;;;2.70;2.50;;;;;;;;;;4995367;28;20295;-83
2023/04/19 07:01:40;;;;;;;2.20;2.00;;;;;;;;;;4995103;28;20203;-84
2023/04/19 07:04:08;;;;;;;6.15;2.58;;;;;;;;;;4995082;28;20192;-84
2023/04/19 07:06:36;;;;;;;3.67;2.30;;;;;;;;;;4995116;28;20608;-84
2023/04/19 07:09:06;;;;;;;2.50;2.30;;;;;;;;;;4994391;28;20211;-84
2023/04/19 07:11:33;;;;;;;2.33;2.00;;;;;;;;;;4994936;28;20290;-84
2023/04/19 07:14:01;;;;;;;4.35;2.85;;;;;;;;;;4995152;28;20683;-84
2023/04/19 07:16:29;;;;;;;2.85;2.38;;;;;;;;;;4994116;28;20318;-82
2023/04/19 07:18:56;;;;;;;2.20;2.10;;;;;;;;;;4994732;28;20258;-84
2023/04/19 07:21:27;;;;;;;2.63;2.40;;;;;;;;;;4994283;28;20319;-85
2023/04/19 07:23:54;;;;;;;3.38;2.03;;;;;;;;;;4994518;28;20211;-82
2023/04/19 07:26:23;;;;;;;2.45;2.25;;;;;;;;;;4995153;28;20653;-84
2023/04/19 07:28:51;;;;;;;2.85;2.25;;;;;;;;;;4995080;28;20286;-83
2023/04/19 07:31:19;;;;;;;2.85;2.33;;;;;;;;;;4994850;28;20291;-83
2023/04/19 07:33:46;;;;;;;2.75;2.28;;;;;;;;;;4994776;28;20299;-84
2023/04/19 07:36:14;;;;;;;2.17;1.98;;;;;;;;;;4997929;28;20315;-83
2023/04/19 07:38:41;;;;;;;3.75;2.47;;;;;;;;;;4997083;28;20203;-83
2023/04/19 07:41:09;;;;;;;2.17;1.98;;;;;;;;;;4997521;28;20318;-83
2023/04/19 07:43:38;;;;;;;2.28;2.05;;;;;;;;;;4997888;28;20585;-84
2023/04/19 07:46:10;;;;;;;2.10;2.00;;;;;;;;;;4997511;28;20228;-82
2023/04/19 07:48:38;;;;;;;3.03;2.10;;;;;;;;;;4996653;28;20223;-84
2023/04/19 07:51:12;;;;;;;2.63;2.42;;;;;;;;;;4997123;28;20199;-82
2023/04/19 07:53:41;;;;;;;3.28;2.17;;;;;;;;;;4997066;28;20208;-83
2023/04/19 07:56:09;;;;;;;2.83;2.17;;;;;;;;;;4997985;28;20223;-84
2023/04/19 07:58:40;;;;;;;2.40;2.20;;;;;;;;;;4997101;28;20741;-84
2023/04/19 08:01:07;;;;;;;4.00;2.20;;;;;;;;;;4997889;28;20871;-83
2023/04/19 08:03:36;;;;;;;3.70;2.25;;;;;;;;;;4997736;28;20672;-84
2023/04/19 08:06:06;;;;;;;2.50;2.30;;;;;;;;;;4997219;28;20294;-82
2023/04/19 08:08:33;;;;;;;3.30;2.92;;;;;;;;;;4997531;28;20230;-84
2023/04/19 08:11:02;;;;;;;1.77;1.67;;;;;;;;;;4996948;28;20200;-84
2023/04/19 08:13:29;;;;;;;2.10;2.00;;;;;;;;;;4996857;28;20672;-85
2023/04/19 08:15:58;;;;;;;2.33;2.13;;;;;;;;;;4996973;28;20703;-84
2023/04/19 08:18:26;;;;;;;4.80;2.45;;;;;;;;;;4996435;28;20290;-84
2023/04/19 08:20:55;;;;;;;2.30;2.10;;;;;;;;;;4997111;28;20227;-85
2023/04/19 08:23:22;;;;;;;2.40;2.20;;;;;;;;;;4996973;28;20204;-83
2023/04/19 08:25:50;;;;;;;1.70;1.60;;;;;;;;;;4997019;28;20290;-84
2023/04/19 08:28:18;;;;;;;1.70;1.60;;;;;;;;;;4996965;28;20218;-84
2023/04/19 08:30:45;;;;;;;2.80;1.67;;;;;;;;;;4997222;28;20204;-83
2023/04/19 08:33:14;;;;;;;3.55;1.70;;;;;;;;;;4996817;28;20770;-83
2023/04/19 08:35:44;;;;;;;2.30;2.10;;;;;;;;;;4996810;28;20224;-83
2023/04/19 08:38:11;;;;;;;3.25;2.13;;;;;;;;;;4997417;28;20702;-85
2023/04/19 08:40:45;;;;;;;3.10;2.63;;;;;;;;;;4996892;28;20310;-84
2023/04/19 08:43:13;;;;;;;1.90;1.80;;;;;;;;;;4997393;28;20214;-84
2023/04/19 08:45:41;;;;;;;2.72;1.63;;;;;;;;;;4995833;28;20237;-83
2023/04/19 08:48:11;;;;;;;1.50;1.40;;;;;;;;;;4995508;28;20298;-84
2023/04/19 08:50:42;;;;;;;2.42;2.15;;;;;;;;;;4996989;28;20223;-84
2023/04/19 08:53:10;;;;;;;2.08;1.88;;;;;;;;;;4996604;28;20206;-83
2023/04/19 08:55:40;;;;;;;1.88;1.77;;;;;;;;;;4996555;28;20224;-84
2023/04/19 08:58:08;;;;;;;2.10;2.00;;;;;;;;;;4996661;28;20702;-84
2023/04/19 09:00:39;;;;;;;2.25;1.80;;;;;;;;;;4996130;28;20290;-82
2023/04/19 09:03:08;;;;;;;2.42;2.22;;;;;;;;;;4996296;28;20208;-83
2023/04/19 09:05:35;;;;;;;2.40;1.60;;;;;;;;;;4996638;28;20228;-84
2023/04/19 09:08:25;;;;;;;1.70;1.50;;;;;;;;;;4996610;28;20302;-82
2023/04/19 09:10:58;;;;;;;1.92;1.75;;;;;;;;;;4997418;28;20235;-85
2023/04/19 09:13:26;;;;;;;2.05;1.50;;;;;;;;;;4996111;28;20266;-82
2023/04/19 09:15:55;;;;;;;2.25;2.15;;;;;;;;;;4996059;28;20310;-83
2023/04/19 09:18:24;;;;;;;1.48;1.38;;;;;;;;;;4995723;28;20676;-84
2023/04/19 09:20:56;;;;;;;2.58;1.85;;;;;;;;;;4995220;28;20196;-84
2023/04/19 09:23:27;;;;;;;1.60;1.50;;;;;;;;;;5003054;28;20242;-83
2023/04/19 09:25:59;;;;;;;1.40;1.30;;;;;;;;;;5009654;28;20286;-83
2023/04/19 09:28:27;;;;;;;1.70;1.60;;;;;;;;;;5013349;28;20210;-84
2023/04/19 09:30:55;;;;;;;1.50;1.40;;;;;;;;;;5009064;28;20268;-84
2023/04/19 09:33:33;;;;;;;1.92;1.45;;;;;;;;;;5009526;28;20206;-84
2023/04/19 09:36:01;;;;;;;1.63;1.52;;;;;;;;;;5009653;28;20219;-82
2023/04/19 09:38:30;;;;;;;2.92;2.55;;;;;;;;;;5002189;28;20643;-84
2023/04/19 09:41:09;;;;;;;1.92;1.70;;;;;;;;;;5001613;28;20819;-86
2023/04/19 09:43:36;;;;;;;2.00;1.80;;;;;;;;;;5003985;28;20710;-85
2023/04/19 09:46:04;;;;;;;1.85;1.65;;;;;;;;;;4999085;28;20296;-83
2023/04/19 09:48:32;;;;;;;4.13;2.00;;;;;;;;;;4998542;28;20234;-85
2023/04/19 09:51:01;;;;;;;1.85;1.75;;;;;;;;;;5000431;28;20231;-85
2023/04/19 09:53:32;;;;;;;1.65;1.55;;;;;;;;;;4999471;28;20212;-84
2023/04/19 09:56:00;;;;;;;1.77;1.67;;;;;;;;;;4998383;28;20253;-85
2023/04/19 09:58:27;;;;;;;3.50;1.98;;;;;;;;;;4996910;28;20267;-85
2023/04/19 10:00:56;;;;;;;2.00;1.70;;;;;;;;;;4998187;28;20294;-85
2023/04/19 10:03:25;;;;;;;2.10;1.90;;;;;;;;;;4997832;28;20292;-85
2023/04/19 10:05:53;;;;;;;2.42;2.13;;;;;;;;;;4997767;28;20780;-84
2023/04/19 10:08:20;;;;;;;3.42;1.73;;;;;;;;;;4996830;28;20295;-86
2023/04/19 10:10:53;;;;;;;1.50;1.40;;;;;;;;;;4996283;28;20645;-83
2023/04/19 10:13:22;;;;;;;1.42;1.33;;;;;;;;;;4996992;28;20202;-85
2023/04/19 10:15:50;;;;;;;2.22;2.03;;;;;;;;;;4997265;28;20224;-86
2023/04/19 10:18:18;;;;;;;1.67;1.58;;;;;;;;;;4998266;28;20254;-86
2023/04/19 10:20:53;;;;;;;2.60;1.77;;;;;;;;;;4997748;28;20257;-84
2023/04/19 10:23:21;;;;;;;1.63;1.52;;;;;;;;;;4996525;28;20211;-84
2023/04/19 10:25:55;;;;;;;2.10;1.70;;;;;;;;;;4997097;28;20717;-82
2023/04/19 10:28:22;;;;;;;1.55;1.45;;;;;;;;;;4996496;28;20295;-86
2023/04/19 10:30:55;;;;;;;2.55;1.80;;;;;;;;;;4997276;28;20253;-85
2023/04/19 10:33:27;;;;;;;1.90;1.80;;;;;;;;;;4997543;28;20202;-85
2023/04/19 10:35:57;;;;;;;2.72;1.45;;;;;;;;;;4997420;28;20227;-83
2023/04/19 10:38:38;;;;;;;1.63;1.52;;;;;;;;;;4996474;28;20204;-85
2023/04/19 10:41:13;;;;;;;2.05;1.85;;;;;;;;;;4996568;28;20294;-83
2023/04/19 10:43:43;;;;;;;2.25;2.15;;;;;;;;;;4997413;28;20227;-85
2023/04/19 10:46:14;;;;;;;1.58;1.48;;;;;;;;;;4996286;28;20666;-83
2023/04/19 10:48:54;;;;;;;1.60;1.50;;;;;;;;;;4994784;28;20591;-84
2023/04/19 10:51:23;;;;;;;1.60;1.50;;;;;;;;;;4996299;28;20269;-84
2023/04/19 10:53:57;;;;;;;1.77;1.67;;;;;;;;;;4996677;28;20584;-84
2023/04/19 10:57:03;;;;;;;1.70;1.52;;;;;;;;;;4995552;28;20306;-85
2023/04/19 10:59:31;;;;;;;1.55;1.45;;;;;;;;;;4987172;28;20254;-84
2023/04/19 11:02:00;;;;;;;3.03;2.00;;;;;;;;;;4995236;28;20234;-85
2023/04/19 11:05:13;;;;;;;2.03;1.88;;;;;;;;;;4996073;28;20657;-83
2023/04/19 11:07:41;;;;;;;1.50;1.40;;;;;;;;;;4981347;28;20204;-82
2023/04/19 11:10:12;;;;;;;2.50;1.95;;;;;;;;;;5002556;28;20294;-85
2023/04/19 11:12:44;;;;;;;2.03;1.88;;;;;;;;;;5001942;28;20231;-85
2023/04/19 11:15:12;;;;;;;2.85;2.10;;;;;;;;;;5001099;28;20207;-85
2023/04/19 11:17:41;;;;;;;3.83;1.88;;;;;;;;;;4999551;28;20279;-85
2023/04/19 11:20:10;;;;;;;1.65;1.55;;;;;;;;;;5001411;28;20207;-84
2023/04/19 11:22:40;;;;;;;1.60;1.50;;;;;;;;;;4999277;28;20311;-84
2023/04/19 11:25:11;;;;;;;2.03;1.92;;;;;;;;;;4997831;28;20199;-86
2023/04/19 11:27:41;;;;;;;1.92;1.80;;;;;;;;;;4999671;28;20208;-84
2023/04/19 11:30:12;;;;;;;1.80;1.70;;;;;;;;;;5000038;28;20239;-84
2023/04/19 11:32:47;;;;;;;2.72;2.53;;;;;;;;;;5000671;28;20232;-84
2023/04/19 11:35:15;;;;;;;2.08;1.88;;;;;;;;;;4999362;28;20295;-85
2023/04/19 11:37:42;;;;;;;2.83;2.33;;;;;;;;;;4999196;28;20749;-85
2023/04/19 11:40:11;;;;;;;2.90;1.63;;;;;;;;;;5000348;28;20286;-86
2023/04/19 11:42:38;;;;;;;1.58;1.48;;;;;;;;;;4999016;28;20235;-84
2023/04/19 11:45:09;;;;;;;3.03;1.95;;;;;;;;;;5000361;28;20247;-85
2023/04/19 11:47:46;;;;;;;5.28;1.98;;;;;;;;;;5041837;23;20233;-86
2023/04/19 11:50:35;;;;;;;2.60;1.80;;;;;;;;;;5024473;28;20294;-85
2023/04/19 11:53:15;;;;;;;2.20;1.98;;;;;;;;;;5021860;28;20200;-85
2023/04/19 11:55:47;;;;;;;1.88;1.65;;;;;;;;;;5025056;28;20222;-85
2023/04/19 11:58:28;;;;;;;1.90;1.80;;;;;;;;;;5025395;28;20215;-85
2023/04/19 12:00:59;;;;;;;2.33;2.13;;;;;;;;;;5025519;28;20206;-84
2023/04/19 12:03:26;;;;;;;2.28;2.00;;;;;;;;;;5025963;28;20233;-86
2023/04/19 12:05:56;;;;;;;5.22;1.95;;;;;;;;;;5023596;28;20210;-86
2023/04/19 12:08:34;;;;;;;2.67;2.10;;;;;;;;;;5022824;28;20278;-85
2023/04/19 12:11:02;;;;;;;2.00;1.77;;;;;;;;;;5022458;28;20266;-85
2023/04/19 12:13:30;;;;;;;2.17;1.77;;;;;;;;;;5022651;28;20234;-84
2023/04/19 12:16:00;;;;;;;1.88;1.65;;;;;;;;;;5022476;28;20792;-85
2023/04/19 12:18:27;;;;;;;1.80;1.70;;;;;;;;;;5021533;28;20198;-85
2023/04/19 12:20:55;;;;;;;2.42;2.22;;;;;;;;;;5020288;28;20210;-84
2023/04/19 12:23:22;;;;;;;2.28;2.10;;;;;;;;;;5022334;28;20250;-85
2023/04/19 12:25:50;;;;;;;2.17;2.05;;;;;;;;;;5020354;28;20302;-85
2023/04/19 12:28:17;;;;;;;3.17;2.05;;;;;;;;;;5019925;28;20199;-85
2023/04/19 12:30:46;;;;;;;1.80;1.70;;;;;;;;;;5021022;28;20294;-84
2023/04/19 12:33:15;;;;;;;2.05;1.80;;;;;;;;;;5020693;28;20610;-84
2023/04/19 12:35:43;;;;;;;2.58;2.30;;;;;;;;;;5020180;28;20208;-85
2023/04/19 12:38:11;;;;;;;1.75;1.65;;;;;;;;;;5020591;28;20203;-85
2023/04/19 12:40:38;;;;;;;2.10;1.90;;;;;;;;;;5019030;28;20570;-84
2023/04/19 12:43:07;;;;;;;3.03;1.85;;;;;;;;;;5019035;28;20685;-84
2023/04/19 12:45:35;;;;;;;2.50;1.65;;;;;;;;;;5019542;28;20202;-85
2023/04/19 12:48:02;;;;;;;1.42;1.33;;;;;;;;;;5018821;28;20302;-84
2023/04/19 12:50:31;;;;;;;1.50;1.40;;;;;;;;;;5019119;28;20279;-85
2023/04/19 12:52:58;;;;;;;2.03;1.83;;;;;;;;;;5018988;28;20207;-85
2023/04/19 12:55:26;;;;;;;2.33;1.80;;;;;;;;;;5018399;28;20234;-86
2023/04/19 12:57:54;;;;;;;1.95;1.75;;;;;;;;;;5018406;28;20309;-84
2023/04/19 13:00:21;;;;;;;1.65;1.55;;;;;;;;;;5019505;28;20290;-84
2023/04/19 13:02:49;;;;;;;2.15;1.65;;;;;;;;;;5018673;28;20294;-84
2023/04/19 13:05:16;;;;;;;2.08;1.92;;;;;;;;;;5017799;28;20579;-84
2023/04/19 13:07:45;;;;;;;2.75;1.83;;;;;;;;;;5018248;28;20290;-85
2023/04/19 13:10:13;;;;;;;2.42;2.22;;;;;;;;;;5020955;28;20213;-85
2023/04/19 13:12:40;;;;;;;2.00;1.80;;;;;;;;;;5017207;28;20656;-85
2023/04/19 13:15:10;;;;;;;3.15;2.15;;;;;;;;;;5015330;28;20203;-83
2023/04/19 13:17:37;;;;;;;1.80;1.70;;;;;;;;;;5015557;28;20255;-83
2023/04/19 13:20:07;;;;;;;2.90;2.20;;;;;;;;;;5016218;28;20808;-84
2023/04/19 13:22:34;;;;;;;2.97;1.80;;;;;;;;;;5014924;28;20235;-83
2023/04/19 13:25:03;;;;;;;2.30;2.10;;;;;;;;;;5016335;28;20281;-84
2023/04/19 13:27:31;;;;;;;2.13;1.95;;;;;;;;;;5017373;28;20226;-83
2023/04/19 13:29:58;;;;;;;2.08;1.88;;;;;;;;;;5014082;28;20293;-84
2023/04/19 13:32:26;;;;;;;2.63;1.88;;;;;;;;;;5014354;28;20199;-84
2023/04/19 13:34:53;;;;;;;2.30;1.95;;;;;;;;;;5015664;28;20199;-84
2023/04/19 13:37:20;;;;;;;1.60;1.50;;;;;;;;;;5014630;28;20237;-84
2023/04/19 13:39:48;;;;;;;2.42;1.67;;;;;;;;;;5014434;28;20199;-84
2023/04/19 13:42:17;;;;;;;3.40;1.80;;;;;;;;;;5014314;28;20290;-83
2023/04/19 13:44:45;;;;;;;1.60;1.50;;;;;;;;;;5014595;28;20234;-84
2023/04/19 13:47:12;;;;;;;1.50;1.40;;;;;;;;;;5014346;28;20326;-84
2023/04/19 13:49:40;;;;;;;1.83;1.73;;;;;;;;;;5016749;28;20757;-84
2023/04/19 13:52:07;;;;;;;2.38;1.95;;;;;;;;;;5015758;28;20217;-84
2023/04/19 13:54:35;;;;;;;3.67;1.65;;;;;;;;;;5014542;28;20230;-84
2023/04/19 13:57:02;;;;;;;2.10;2.00;;;;;;;;;;5014327;28;20293;-84
2023/04/19 13:59:31;;;;;;;1.60;1.50;;;;;;;;;;5014727;28;20209;-85
2023/04/19 14:01:59;;;;;;;2.28;2.08;;;;;;;;;;5017066;28;20320;-84
2023/04/19 14:04:26;;;;;;;2.55;2.35;;;;;;;;;;5014648;28;20322;-83
2023/04/19 14:06:54;;;;;;;1.90;1.80;;;;;;;;;;5014865;28;20229;-84
2023/04/19 14:09:21;;;;;;;2.00;1.90;;;;;;;;;;5014343;28;20213;-84
2023/04/19 14:11:49;;;;;;;2.08;1.88;;;;;;;;;;5014966;28;20293;-83
2023/04/19 14:14:17;;;;;;;2.03;1.80;;;;;;;;;;5016029;28;20195;-83
2023/04/19 14:16:45;;;;;;;1.92;1.80;;;;;;;;;;5015328;28;20309;-84
2023/04/19 14:19:13;;;;;;;1.65;1.55;;;;;;;;;;5015483;28;20199;-83
2023/04/19 14:21:41;;;;;;;2.08;1.73;;;;;;;;;;5015759;28;20203;-83
2023/04/19 14:24:08;;;;;;;2.15;1.63;;;;;;;;;;5014915;28;20321;-83
2023/04/19 14:26:36;;;;;;;1.80;1.70;;;;;;;;;;5014311;28;20310;-83
2023/04/19 14:29:03;;;;;;;3.83;1.85;;;;;;;;;;5017666;28;20270;-84
2023/04/19 14:31:31;;;;;;;2.22;1.92;;;;;;;;;;5020183;28;20282;-84
2023/04/19 14:34:00;;;;;;;1.85;1.70;;;;;;;;;;5020196;28;20234;-84
2023/04/19 14:36:27;;;;;;;2.33;2.22;;;;;;;;;;5020636;28;20314;-85
2023/04/19 14:38:54;;;;;;;2.30;1.88;;;;;;;;;;5022052;28;20207;-84
2023/04/19 14:41:22;;;;;;;5.22;2.17;;;;;;;;;;5023817;28;20298;-83
2023/04/19 14:43:50;;;;;;;3.00;1.88;;;;;;;;;;5025132;28;20202;-83
2023/04/19 14:46:18;;;;;;;3.78;1.73;;;;;;;;;;5027233;28;20230;-84
2023/04/19 14:48:45;;;;;;;3.90;2.03;;;;;;;;;;5027287;28;20591;-84
2023/04/19 14:51:14;;;;;;;3.65;1.83;;;;;;;;;;5024250;28;20274;-85
2023/04/19 14:53:41;;;;;;;1.40;1.30;;;;;;;;;;5020846;28;20198;-84